Gibraltar, Gibraltar

5:58 PM CET on February 08, 2016 (GMT +0100)
Colegio San Pedro | | Change Station
CLOSE
Current Station
Personal Weather Station
Location: La Linea De La Concepción, ANDALUCíA
Elevation: 23 ft
Nearby Weather Stations

Elev 23 ft 36.17 °N, 5.35 °W | Updated 1 second ago

Mostly Cloudy
Mostly Cloudy
61.9 °F
Feels Like 61.9 °F
N
7.6
Wind Variable Wind from WNW
Gusts 12.3 mph

Today
High -- | Low -- °F
--% Chance of Precip.
Yesterday
High -- | Low -- °F
Precip. -- in
Pressure 30.42 in
Visibility 5.0 miles
Clouds Few 1600 ft
Mostly Cloudy 20000 ft
Dew Point 42 °F
Humidity 48%
Rainfall 0.00 in
Snow Depth Not available.
8:16 AM 6:54 PM
New Moon, 0% visible
METAR GMTT 081630Z 34009KT 300V360 8000 FEW016 BKN200 17/08 Q1030 NOSIG
Pressure 30.42 in
Visibility 5.0 miles
Clouds Few 1600 ft
Mostly Cloudy 20000 ft
Dew Point 42 °F
Humidity 48%
Rainfall 0.00 in
Snow Depth Not available.
8:16 AM 6:54 PM
New Moon, 0% visible
METAR GMTT 081630Z 34009KT 300V360 8000 FEW016 BKN200 17/08 Q1030 NOSIG

10-Day Weather Forecast

Almanac

Astronomy

Feb. 08, 2016 Rise Set
Actual Time
Civil Twilight
Nautical Twilight
Astronomical Twilight
Moon
Length of Visible Light
Length of Day
Tomorrow will be .
, % of the Moon is Illuminated

Today's Extremes

Country Highs Country Lows

Community

WunderPhotos

Upload Photos

1,891,462 photos uploaded!

WunderBlog® & News

Nearby

Air Quality

  Air Quality AQ Index Pollutant
Not available.

Snow Depth

Station Depth Elevation

Earthquake Activity

City Distance Mag. Time & Date
Minimum magnitude displayed is 2.5.

Coastal Water Temperatures

Place Temperature

Stations

Nearby Weather Stations

Station Location Temp. Windchill Dew Point Humidity Wind Precip. Elev Updated Type